Time;durP1;ratioP1;P1;durP2;ratioP2;P2;SDS_P1;SDS_P2;PMS_P1;PMS_P2;Temp;Humidity;BMP_temperature;BMP_pressure;BME280_temperature;BME280_humidity;BME280_pressure;Samples;Min_cycle;Max_cycle;Signal;HPM_P1;HPM_P2
2023/04/12 00:01:16;;;;;;;8.32;1.30;;;;;;;3.46;86.18;98275.75;5048310;28;20049;-44
2023/04/12 00:03:49;;;;;;;6.75;1.00;;;;;;;3.45;86.22;98274.16;5056546;28;20051;-46
2023/04/12 00:06:24;;;;;;;2.88;0.88;;;;;;;3.42;86.07;98272.91;5044469;28;20049;-47
2023/04/12 00:08:53;;;;;;;2.83;0.93;;;;;;;3.41;86.57;98265.09;5066934;28;20052;-45
2023/04/12 00:11:20;;;;;;;9.02;1.45;;;;;;;3.42;86.81;98258.44;5058885;28;20044;-46
2023/04/12 00:13:47;;;;;;;6.47;1.38;;;;;;;3.41;86.45;98273.28;5052858;28;20051;-45
2023/04/12 00:16:14;;;;;;;7.30;1.60;;;;;;;3.41;86.57;98276.03;5054201;28;20036;-46
2023/04/12 00:18:44;;;;;;;6.88;0.75;;;;;;;3.42;86.74;98275.66;5062295;28;20059;-46
2023/04/12 00:21:12;;;;;;;5.00;1.30;;;;;;;3.40;86.72;98260.75;5049761;28;20139;-46
2023/04/12 00:23:39;;;;;;;4.72;1.52;;;;;;;3.38;86.95;98269.34;5052820;28;20042;-55
2023/04/12 00:26:06;;;;;;;6.15;1.45;;;;;;;3.37;86.66;98261.47;5041557;28;20033;-53
2023/04/12 00:28:34;;;;;;;3.08;1.00;;;;;;;3.38;86.66;98265.81;5047169;28;20409;-46
2023/04/12 00:31:01;;;;;;;1.77;0.82;;;;;;;3.38;86.79;98260.31;5049014;28;20091;-44
2023/04/12 00:33:28;;;;;;;9.48;1.58;;;;;;;3.39;86.82;98256.47;5060022;28;20132;-45
2023/04/12 00:35:56;;;;;;;10.68;2.30;;;;;;;3.38;86.87;98258.41;5059838;28;20040;-45
2023/04/12 00:38:24;;;;;;;7.82;2.03;;;;;;;3.39;86.71;98259.19;5062146;28;20049;-45
2023/04/12 00:40:51;;;;;;;5.82;1.45;;;;;;;3.38;86.68;98263.06;5048794;28;20103;-46
2023/04/12 00:43:18;;;;;;;9.93;1.38;;;;;;;3.35;87.06;98261.84;5042995;28;20106;-45
2023/04/12 00:45:46;;;;;;;12.25;3.63;;;;;;;3.34;87.03;98253.97;5069048;28;20056;-47
2023/04/12 00:48:15;;;;;;;6.35;1.42;;;;;;;3.33;87.02;98250.47;5049051;28;20044;-46
2023/04/12 00:50:43;;;;;;;9.75;1.33;;;;;;;3.35;86.51;98252.84;5052603;28;20593;-45
2023/04/12 00:53:12;;;;;;;6.35;1.13;;;;;;;3.35;86.44;98241.91;5039922;28;20053;-47
2023/04/12 00:55:42;;;;;;;4.05;1.13;;;;;;;3.33;86.63;98245.00;5048818;28;20040;-45
2023/04/12 00:58:09;;;;;;;3.65;0.80;;;;;;;3.32;86.31;98234.41;5055907;28;20036;-49
2023/04/12 01:00:36;;;;;;;6.63;1.02;;;;;;;3.31;86.57;98241.03;5053956;28;20052;-47
2023/04/12 01:03:07;;;;;;;4.55;0.82;;;;;;;3.29;86.52;98237.84;5038960;28;20062;-53
2023/04/12 01:05:42;;;;;;;4.50;0.75;;;;;;;3.27;86.09;98229.22;5035668;28;20041;-51
2023/04/12 01:08:34;;;;;;;3.47;1.30;;;;;;;3.25;86.02;98231.53;5047269;28;20045;-46
2023/04/12 01:11:37;;;;;;;4.30;0.90;;;;;;;3.21;85.95;98225.97;5055600;28;20041;-45
2023/04/12 01:14:16;;;;;;;7.45;1.35;;;;;;;3.19;85.89;98228.28;5046736;28;20061;-46
2023/04/12 01:16:50;;;;;;;4.88;0.88;;;;;;;3.17;86.20;98218.84;5059677;28;20041;-46
2023/04/12 01:19:34;;;;;;;2.75;0.82;;;;;;;3.14;86.20;98197.69;5056432;28;20574;-53
2023/04/12 01:22:31;;;;;;;8.15;1.30;;;;;;;3.11;86.12;98201.16;5068605;28;20394;-47
2023/04/12 01:25:01;;;;;;;3.08;0.90;;;;;;;3.12;86.05;98200.00;5052781;28;20486;-45
2023/04/12 01:27:51;;;;;;;5.38;0.90;;;;;;;3.14;85.93;98194.97;5057448;28;20036;-55
2023/04/12 01:30:20;;;;;;;4.70;1.10;;;;;;;3.14;85.90;98205.91;5053070;28;20057;-52
2023/04/12 01:32:51;;;;;;;3.47;1.35;;;;;;;3.16;85.58;98200.84;5047296;28;20554;-45
2023/04/12 01:35:20;;;;;;;6.75;1.00;;;;;;;3.12;85.91;98202.75;5039390;28;20132;-47
2023/04/12 01:37:47;;;;;;;4.90;1.80;;;;;;;3.12;85.39;98194.53;5066884;28;20445;-48
2023/04/12 01:40:16;;;;;;;2.35;0.50;;;;;;;3.11;85.79;98195.69;5072485;28;20056;-54
2023/04/12 01:42:43;;;;;;;1.77;0.68;;;;;;;3.07;85.52;98201.84;5055580;28;20056;-53
2023/04/12 01:45:11;;;;;;;5.65;0.95;;;;;;;3.05;85.36;98185.03;5035224;28;20049;-51
2023/04/12 01:47:38;;;;;;;2.05;0.47;;;;;;;3.05;85.52;98182.28;5066749;28;20387;-47
2023/04/12 01:50:17;;;;;;;6.30;0.57;;;;;;;3.07;85.42;98174.53;5052066;28;20061;-48
2023/04/12 01:53:02;;;;;;;3.50;0.70;;;;;;;3.06;85.25;98180.34;5053513;28;20059;-54
2023/04/12 01:55:31;;;;;;;4.22;1.10;;;;;;;3.04;85.54;98169.00;5052645;28;20044;-46
2023/04/12 01:58:02;;;;;;;9.68;0.73;;;;;;;3.03;85.42;98170.94;5036637;28;20037;-45
2023/04/12 02:00:31;;;;;;;5.88;0.65;;;;;;;3.01;85.29;98172.44;5056431;28;20048;-49
2023/04/12 02:02:58;;;;;;;2.65;0.70;;;;;;;3.00;85.13;98166.19;5052727;28;20045;-46
2023/04/12 02:05:27;;;;;;;4.07;0.60;;;;;;;3.00;84.75;98159.91;5056943;28;20423;-46
2023/04/12 02:07:55;;;;;;;0.73;0.40;;;;;;;2.99;84.66;98174.75;5051762;28;20045;-45
2023/04/12 02:10:31;;;;;;;4.38;0.98;;;;;;;2.98;84.90;98159.50;5051868;28;20091;-46
2023/04/12 02:13:02;;;;;;;3.90;0.50;;;;;;;2.96;84.73;98148.94;5061229;28;20075;-50
2023/04/12 02:15:30;;;;;;;6.68;2.20;;;;;;;2.95;84.88;98141.06;5053764;28;20041;-45
2023/04/12 02:18:00;;;;;;;5.22;1.13;;;;;;;2.93;84.87;98135.97;5051790;28;20079;-54
2023/04/12 02:20:27;;;;;;;3.78;0.80;;;;;;;2.93;84.80;98127.78;5066201;28;20412;-46
2023/04/12 02:22:54;;;;;;;2.72;0.95;;;;;;;2.92;84.75;98115.25;5071748;28;20041;-47
2023/04/12 02:25:22;;;;;;;5.05;1.27;;;;;;;2.91;85.08;98116.41;5071042;28;20496;-47
2023/04/12 02:27:50;;;;;;;9.85;0.75;;;;;;;2.91;84.97;98113.66;5052788;28;20037;-45
2023/04/12 02:30:17;;;;;;;3.45;0.80;;;;;;;2.88;85.22;98103.47;5051071;28;20052;-45
2023/04/12 02:32:46;;;;;;;5.53;1.13;;;;;;;2.86;85.26;98111.22;5051144;28;20227;-53
2023/04/12 02:35:17;;;;;;;4.30;2.38;;;;;;;2.84;85.04;98097.13;5069923;28;20044;-51
2023/04/12 02:37:46;;;;;;;3.93;0.60;;;;;;;2.81;85.08;98100.56;5058402;28;20049;-48
2023/04/12 02:40:16;;;;;;;2.78;0.68;;;;;;;2.81;85.07;98097.03;5037866;28;20290;-45
2023/04/12 02:42:43;;;;;;;8.15;0.70;;;;;;;2.80;85.35;98079.88;5061555;28;20138;-46
2023/04/12 02:45:11;;;;;;;3.70;0.70;;;;;;;2.80;85.08;98071.69;5050788;28;20487;-45
2023/04/12 02:47:39;;;;;;;6.30;0.90;;;;;;;2.80;85.02;98070.88;5059686;28;20072;-45
2023/04/12 02:50:07;;;;;;;2.10;0.50;;;;;;;2.78;85.25;98060.31;5041239;28;20041;-45
2023/04/12 02:52:34;;;;;;;4.82;0.60;;;;;;;2.77;85.24;98042.34;5050738;28;20049;-45
2023/04/12 02:55:01;;;;;;;4.07;0.70;;;;;;;2.76;85.55;98053.63;5050937;28;20037;-47
2023/04/12 02:57:29;;;;;;;1.02;0.65;;;;;;;2.73;85.34;98049.66;5044200;28;20099;-47
2023/04/12 02:59:56;;;;;;;6.15;0.50;;;;;;;2.69;85.32;98035.16;5044859;28;20111;-46
2023/04/12 03:02:22;;;;;;;4.00;0.70;;;;;;;2.69;85.53;98024.22;5071874;22;20053;-51
2023/04/12 03:05:09;;;;;;;1.40;0.80;;;;;;;2.67;85.59;97998.44;5046938;28;20060;-45
2023/04/12 03:07:37;;;;;;;0.80;0.50;;;;;;;2.66;85.53;98008.56;5049152;28;20132;-45
2023/04/12 03:10:08;;;;;;;0.57;0.40;;;;;;;2.65;85.79;98000.75;5044735;28;20047;-50
2023/04/12 03:12:35;;;;;;;4.95;1.05;;;;;;;2.64;85.52;97989.00;5050161;28;20049;-50
2023/04/12 03:15:02;;;;;;;5.00;0.45;;;;;;;2.63;85.50;97987.44;5041428;28;20041;-53
2023/04/12 03:17:29;;;;;;;1.27;0.47;;;;;;;2.62;85.54;97985.84;5048697;28;20546;-46
2023/04/12 03:20:09;;;;;;;6.03;0.73;;;;;;;2.61;85.80;97995.19;5052564;28;20053;-45
2023/04/12 03:22:36;;;;;;;6.13;1.33;;;;;;;2.61;85.59;98000.66;5044021;28;20087;-45
2023/04/12 03:25:04;;;;;;;0.95;0.40;;;;;;;2.62;85.81;97990.53;5055166;28;20064;-46
2023/04/12 03:27:31;;;;;;;2.97;0.95;;;;;;;2.61;85.57;97988.94;5048295;28;20041;-48
2023/04/12 03:29:59;;;;;;;0.77;0.50;;;;;;;2.62;85.51;97972.19;5033525;28;20079;-45
2023/04/12 03:32:26;;;;;;;6.35;1.25;;;;;;;2.61;85.48;97978.00;5049131;28;20037;-54
2023/04/12 03:34:56;;;;;;;6.22;0.55;;;;;;;2.61;85.77;97967.09;5052182;28;20056;-45
2023/04/12 03:37:23;;;;;;;5.15;0.73;;;;;;;2.60;85.50;97971.75;5068055;28;20078;-48
2023/04/12 03:39:50;;;;;;;6.47;0.82;;;;;;;2.60;85.58;97966.28;5052411;28;20037;-45
2023/04/12 03:42:17;;;;;;;2.47;0.47;;;;;;;2.61;85.49;97978.00;5051448;28;20043;-46
2023/04/12 03:44:59;;;;;;;4.00;0.65;;;;;;;2.59;85.88;97972.91;5049015;28;20080;-45
2023/04/12 03:47:26;;;;;;;8.27;1.10;;;;;;;2.61;85.54;97969.81;5044726;28;20421;-47
2023/04/12 03:49:54;;;;;;;1.27;0.60;;;;;;;2.60;85.72;97960.03;5033528;28;20045;-46
2023/04/12 03:52:37;;;;;;;6.43;0.80;;;;;;;2.59;85.76;97956.53;5060677;28;20109;-46
2023/04/12 03:55:06;;;;;;;2.45;0.75;;;;;;;2.61;85.80;97948.75;5050879;28;20151;-52
2023/04/12 03:57:34;;;;;;;4.07;0.73;;;;;;;2.61;85.23;97940.56;5056725;28;20041;-45
2023/04/12 04:00:01;;;;;;;5.03;0.98;;;;;;;2.59;85.75;97931.97;5060175;28;20094;-49
2023/04/12 04:02:30;;;;;;;5.03;0.90;;;;;;;2.58;85.59;97915.91;5060838;28;20498;-45
2023/04/12 04:04:58;;;;;;;5.78;1.15;;;;;;;2.56;85.45;97916.28;5068590;28;20041;-45
2023/04/12 04:07:26;;;;;;;5.22;1.10;;;;;;;2.57;85.62;97906.16;5065909;28;20127;-46
2023/04/12 04:09:54;;;;;;;1.80;0.70;;;;;;;2.57;85.49;97906.16;5059838;28;20078;-46
2023/04/12 04:12:21;;;;;;;7.45;1.20;;;;;;;2.58;85.46;97896.78;5051681;28;20463;-46
2023/04/12 04:14:48;;;;;;;7.13;1.00;;;;;;;2.59;85.72;97901.13;5048669;28;20055;-46
2023/04/12 04:17:15;;;;;;;4.50;1.30;;;;;;;2.59;85.27;97891.00;5062531;28;20053;-46
2023/04/12 04:19:43;;;;;;;3.97;0.90;;;;;;;2.60;85.21;97883.56;5050390;28;20045;-47
2023/04/12 04:22:12;;;;;;;4.97;0.60;;;;;;;2.61;85.60;97872.28;5067897;28;20398;-45
2023/04/12 04:24:39;;;;;;;6.97;1.10;;;;;;;2.63;85.31;97855.53;5056914;28;20178;-46
2023/04/12 04:27:06;;;;;;;3.10;1.17;;;;;;;2.64;85.22;97857.13;5048594;28;20037;-45
2023/04/12 04:29:33;;;;;;;5.68;1.10;;;;;;;2.65;85.46;97843.09;5049515;28;20056;-46
2023/04/12 04:32:00;;;;;;;3.05;0.90;;;;;;;2.67;85.05;97827.16;5054372;28;20048;-47
2023/04/12 04:34:28;;;;;;;7.60;1.00;;;;;;;2.67;85.28;97818.16;5055505;28;20084;-47
2023/04/12 04:36:56;;;;;;;6.32;0.70;;;;;;;2.67;85.03;97799.84;5056284;28;20043;-47
2023/04/12 04:39:24;;;;;;;2.65;0.50;;;;;;;2.64;84.93;97803.28;5037450;28;20044;-46
2023/04/12 04:41:53;;;;;;;8.25;2.33;;;;;;;2.64;85.06;97789.63;5048991;28;20387;-49
2023/04/12 04:44:21;;;;;;;6.90;1.35;;;;;;;2.65;84.75;97785.72;5049935;28;20455;-45
2023/04/12 04:46:48;;;;;;;5.15;1.33;;;;;;;2.65;84.71;97766.63;5067700;28;20048;-45
2023/04/12 04:49:17;;;;;;;5.75;0.80;;;;;;;2.66;84.59;97764.69;5045993;28;20052;-47
2023/04/12 04:51:44;;;;;;;4.88;1.10;;;;;;;2.67;84.87;97747.16;5027269;28;20068;-45
2023/04/12 04:54:12;;;;;;;5.72;0.73;;;;;;;2.70;84.62;97746.41;5048037;28;20049;-46
2023/04/12 04:56:39;;;;;;;3.65;0.80;;;;;;;2.72;84.47;97733.19;5046313;28;20486;-45
2023/04/12 04:59:07;;;;;;;6.82;1.13;;;;;;;2.75;84.67;97725.06;5049978;28;20037;-45
2023/04/12 05:01:37;;;;;;;6.30;0.80;;;;;;;2.77;84.49;97711.00;5056752;28;20570;-46
2023/04/12 05:04:05;;;;;;;7.93;1.80;;;;;;;2.78;84.44;97705.16;5052645;28;20498;-49
2023/04/12 05:06:35;;;;;;;6.63;1.15;;;;;;;2.79;84.51;97704.03;5062704;28;20135;-45
2023/04/12 05:09:04;;;;;;;7.80;1.00;;;;;;;2.79;84.29;97700.50;5029360;28;20437;-45
2023/04/12 05:11:33;;;;;;;3.95;0.73;;;;;;;2.80;84.22;97697.41;5049014;28;20048;-46
2023/04/12 05:14:02;;;;;;;5.20;1.02;;;;;;;2.82;84.24;97678.72;5047324;28;20504;-45
2023/04/12 05:16:32;;;;;;;8.98;1.55;;;;;;;2.85;83.82;97675.25;5047349;28;20118;-45
2023/04/12 05:18:59;;;;;;;7.40;1.40;;;;;;;2.88;83.81;97671.78;5029617;28;20055;-45
2023/04/12 05:21:27;;;;;;;5.50;1.42;;;;;;;2.90;83.66;97661.25;5060296;28;20051;-46
2023/04/12 05:23:55;;;;;;;7.32;1.55;;;;;;;2.93;83.60;97660.53;5049923;28;20095;-46
2023/04/12 05:26:23;;;;;;;7.90;1.27;;;;;;;2.93;83.67;97652.31;5037568;28;20045;-46
2023/04/12 05:28:52;;;;;;;9.18;1.42;;;;;;;2.94;83.49;97642.94;5058851;28;20036;-47
2023/04/12 05:31:19;;;;;;;6.22;1.42;;;;;;;2.94;83.50;97647.63;5050835;28;20095;-46
2023/04/12 05:33:48;;;;;;;7.10;1.85;;;;;;;2.95;83.46;97652.72;5047099;28;20581;-46
2023/04/12 05:36:16;;;;;;;6.68;1.85;;;;;;;2.98;83.37;97648.47;5047998;28;20473;-46
2023/04/12 05:38:43;;;;;;;5.75;1.63;;;;;;;2.98;83.09;97621.16;5056260;28;20048;-49
2023/04/12 05:41:11;;;;;;;9.55;1.67;;;;;;;3.01;83.45;97626.66;5062264;28;20063;-53
2023/04/12 05:43:38;;;;;;;6.88;1.58;;;;;;;3.04;82.92;97630.59;5060155;28;20045;-49
2023/04/12 05:46:08;;;;;;;6.90;2.85;;;;;;;3.05;83.07;97604.84;5057078;28;20052;-46
2023/04/12 05:48:35;;;;;;;7.22;1.10;;;;;;;3.10;82.74;97604.50;5057605;28;20163;-46
2023/04/12 05:51:04;;;;;;;11.55;1.60;;;;;;;3.16;82.86;97604.97;5054781;28;20482;-46
2023/04/12 05:53:31;;;;;;;11.02;1.60;;;;;;;3.21;82.91;97597.22;5068407;28;20063;-46
2023/04/12 05:55:58;;;;;;;8.80;2.28;;;;;;;3.28;82.69;97574.66;5051642;28;20056;-46
2023/04/12 05:58:25;;;;;;;7.95;1.85;;;;;;;3.33;82.64;97566.13;5048163;28;20052;-46
2023/04/12 06:00:54;;;;;;;6.50;2.08;;;;;;;3.37;82.64;97542.31;5048466;28;20064;-45
2023/04/12 06:03:24;;;;;;;15.20;2.78;;;;;;;3.41;82.38;97540.41;5048162;28;20052;-46
2023/04/12 06:05:52;;;;;;;14.48;2.38;;;;;;;3.46;82.11;97520.94;5030292;28;20569;-45
2023/04/12 06:08:20;;;;;;;11.32;2.63;;;;;;;3.51;82.15;97507.69;5047883;28;20049;-46
2023/04/12 06:10:47;;;;;;;24.00;8.23;;;;;;;3.56;82.39;97492.88;5048132;28;20067;-49
2023/04/12 06:13:15;;;;;;;31.50;9.63;;;;;;;3.60;81.81;97477.31;5048478;28;20053;-45
2023/04/12 06:15:42;;;;;;;10.40;4.55;;;;;;;3.62;81.86;97475.75;5046956;28;20048;-46
2023/04/12 06:18:11;;;;;;;12.73;3.53;;;;;;;3.64;81.89;97459.75;5048570;28;20076;-46
2023/04/12 06:20:39;;;;;;;11.13;2.90;;;;;;;3.63;81.58;97444.50;5050644;28;20072;-47
2023/04/12 06:23:07;;;;;;;8.02;3.65;;;;;;;3.65;81.48;97430.44;5051891;28;20037;-48
2023/04/12 06:25:34;;;;;;;6.07;2.13;;;;;;;3.66;81.60;97432.00;5049994;28;20051;-49
2023/04/12 06:28:01;;;;;;;9.85;2.25;;;;;;;3.67;81.32;97425.38;5051753;28;20517;-47
2023/04/12 06:30:28;;;;;;;11.98;3.47;;;;;;;3.68;81.25;97429.66;5051714;28;20068;-46
2023/04/12 06:32:55;;;;;;;17.13;4.00;;;;;;;3.68;81.56;97424.19;5052011;28;20041;-48
2023/04/12 06:35:22;;;;;;;10.55;2.92;;;;;;;3.68;81.47;97408.56;5052321;28;20075;-47
2023/04/12 06:37:49;;;;;;;13.80;3.35;;;;;;;3.69;81.37;97387.47;5034044;28;20056;-46
2023/04/12 06:40:17;;;;;;;10.68;2.17;;;;;;;3.69;81.59;97398.41;5047717;28;20055;-46
2023/04/12 06:42:43;;;;;;;15.95;1.98;;;;;;;3.71;81.40;97395.31;5048664;28;20044;-47
2023/04/12 06:45:11;;;;;;;8.77;2.88;;;;;;;3.71;81.63;97384.38;5051376;28;20124;-46
2023/04/12 06:47:38;;;;;;;9.23;2.50;;;;;;;3.70;81.76;97386.31;5051481;28;20062;-48
2023/04/12 06:50:05;;;;;;;8.27;1.83;;;;;;;3.69;82.22;97382.00;5051248;28;20049;-47
2023/04/12 06:52:32;;;;;;;6.88;2.13;;;;;;;3.68;82.21;97385.91;5051431;28;20052;-46
2023/04/12 06:54:59;;;;;;;15.15;2.83;;;;;;;3.67;82.33;97366.00;5050319;28;20079;-52
2023/04/12 06:57:26;;;;;;;12.32;1.90;;;;;;;3.68;82.55;97364.00;5050755;28;20049;-47
2023/04/12 06:59:53;;;;;;;7.70;1.73;;;;;;;3.70;82.83;97356.22;5036302;28;20048;-47
2023/04/12 07:02:21;;;;;;;5.97;1.33;;;;;;;3.69;82.80;97335.50;5045402;28;20144;-49
2023/04/12 07:04:55;;;;;;;10.27;2.40;;;;;;;3.68;83.29;97325.72;5062373;28;20045;-53
2023/04/12 07:07:21;;;;;;;11.52;2.67;;;;;;;3.68;83.54;97320.25;5067318;28;20036;-45
2023/04/12 07:09:54;;;;;;;7.97;1.60;;;;;;;3.70;83.72;97307.00;5070521;28;20049;-45
2023/04/12 07:12:21;;;;;;;6.00;1.20;;;;;;;3.71;83.77;97305.81;5070451;28;20041;-46
2023/04/12 07:14:49;;;;;;;11.65;2.45;;;;;;;3.70;84.14;97287.84;5069266;28;20375;-45
2023/04/12 07:17:20;;;;;;;6.72;1.65;;;;;;;3.68;84.17;97281.94;5070796;28;20486;-46
2023/04/12 07:19:49;;;;;;;5.45;2.67;;;;;;;3.70;84.56;97282.38;5070821;28;20053;-45
2023/04/12 07:22:15;;;;;;;8.02;1.88;;;;;;;3.73;84.34;97273.41;5063542;28;20551;-45
2023/04/12 07:24:43;;;;;;;10.20;1.55;;;;;;;3.75;84.61;97265.59;5053705;28;20391;-45
2023/04/12 07:27:10;;;;;;;8.30;1.40;;;;;;;3.74;85.06;97250.34;5062335;28;20039;-45
2023/04/12 07:29:37;;;;;;;8.20;2.38;;;;;;;3.78;85.21;97248.41;5063443;28;20052;-45
2023/04/12 07:32:05;;;;;;;13.95;2.30;;;;;;;3.83;85.08;97245.28;5043048;28;20457;-44
2023/04/12 07:34:32;;;;;;;12.70;2.00;;;;;;;3.86;85.00;97233.59;5056890;28;20041;-53
2023/04/12 07:37:00;;;;;;;10.13;1.40;;;;;;;3.93;85.57;97232.81;5051199;28;20072;-45
2023/04/12 07:39:29;;;;;;;3.20;1.60;;;;;;;4.01;85.60;97228.91;5039284;28;20525;-45
2023/04/12 07:41:56;;;;;;;4.40;1.35;;;;;;;4.12;85.68;97224.25;5063617;28;20405;-46
2023/04/12 07:44:23;;;;;;;6.47;1.17;;;;;;;4.21;85.25;97228.19;5045000;28;20510;-45
2023/04/12 07:46:50;;;;;;;6.45;1.67;;;;;;;4.30;85.72;97231.34;5049631;28;20088;-46
2023/04/12 07:49:17;;;;;;;7.72;1.50;;;;;;;4.37;85.77;97224.31;5056029;28;20049;-46
2023/04/12 07:51:45;;;;;;;7.68;1.27;;;;;;;4.44;85.89;97218.81;5034592;28;20227;-45
2023/04/12 07:54:13;;;;;;;3.88;1.42;;;;;;;4.48;85.90;97223.13;5064239;28;20075;-48
2023/04/12 07:56:40;;;;;;;4.00;1.15;;;;;;;4.54;86.25;97218.03;5048985;28;20041;-44
2023/04/12 07:59:08;;;;;;;4.45;1.35;;;;;;;4.56;86.40;97213.72;5041348;28;20526;-49
2023/04/12 08:01:35;;;;;;;7.10;1.83;;;;;;;4.57;86.84;97206.31;5042242;28;20219;-46
2023/04/12 08:04:06;;;;;;;4.65;1.50;;;;;;;4.62;86.68;97214.91;5040782;28;20242;-47
2023/04/12 08:06:33;;;;;;;11.00;2.67;;;;;;;4.68;87.04;97196.91;5038360;28;20048;-45
2023/04/12 08:09:00;;;;;;;5.13;1.30;;;;;;;4.71;86.88;97195.34;5037187;28;20485;-46
2023/04/12 08:11:27;;;;;;;6.88;1.10;;;;;;;4.76;87.18;97197.69;5033103;28;20426;-46
2023/04/12 08:13:54;;;;;;;3.63;0.85;;;;;;;4.87;87.50;97198.47;5022719;28;20045;-46
2023/04/12 08:16:22;;;;;;;2.50;0.98;;;;;;;4.94;87.38;97192.97;5035742;28;20144;-47
2023/04/12 08:18:49;;;;;;;5.82;1.40;;;;;;;4.99;87.73;97191.78;5045746;28;20501;-54
2023/04/12 08:21:17;;;;;;;2.17;0.98;;;;;;;5.02;87.73;97200.00;5016990;28;20046;-45
2023/04/12 08:23:45;;;;;;;7.78;1.65;;;;;;;5.08;87.64;97201.16;5044400;28;20594;-47
2023/04/12 08:26:12;;;;;;;9.07;1.52;;;;;;;5.19;87.90;97199.16;5038070;28;20044;-42
2023/04/12 08:28:39;;;;;;;2.15;0.95;;;;;;;5.33;88.09;97196.38;5037486;28;20041;-44
2023/04/12 08:31:07;;;;;;;4.88;1.10;;;;;;;5.50;87.91;97190.06;5043252;28;20044;-48
2023/04/12 08:33:34;;;;;;;1.88;0.65;;;;;;;5.59;88.13;97194.34;5037378;28;20328;-44
2023/04/12 08:36:01;;;;;;;4.45;1.40;;;;;;;5.68;88.15;97208.41;5038016;28;20119;-45
2023/04/12 08:38:28;;;;;;;2.38;1.00;;;;;;;5.79;88.63;97206.41;5037655;28;20434;-44
2023/04/12 08:41:11;;;;;;;1.95;0.90;;;;;;;5.86;88.62;97209.13;4989972;28;20150;-43
2023/04/12 08:43:44;;;;;;;2.72;0.75;;;;;;;5.94;88.72;97216.16;5042938;28;20052;-48
2023/04/12 08:46:14;;;;;;;3.58;1.02;;;;;;;5.89;88.66;97216.56;5045621;28;20156;-49
2023/04/12 08:48:46;;;;;;;2.13;0.88;;;;;;;5.90;88.88;97212.66;5040716;28;20106;-46
2023/04/12 08:51:18;;;;;;;6.78;1.55;;;;;;;5.90;88.96;97223.63;5039071;28;20449;-49
2023/04/12 08:53:46;;;;;;;7.43;1.65;;;;;;;5.94;88.56;97221.66;5044457;28;20036;-51
2023/04/12 08:56:16;;;;;;;4.28;1.13;;;;;;;6.02;88.75;97223.16;5048249;28;20059;-44
2023/04/12 08:58:49;;;;;;;7.03;1.70;;;;;;;6.06;88.76;97232.19;5046683;28;20417;-48
2023/04/12 09:01:19;;;;;;;5.55;1.75;;;;;;;6.58;88.74;97238.50;5036904;28;20057;-45
2023/04/12 09:03:46;;;;;;;4.82;1.30;;;;;;;6.62;87.63;97237.28;5018597;28;20060;-46
2023/04/12 09:06:13;;;;;;;3.40;1.00;;;;;;;6.67;88.21;97247.84;5019601;28;20045;-45
2023/04/12 09:08:55;;;;;;;9.30;1.42;;;;;;;6.72;87.57;97244.66;5036547;28;20490;-45
2023/04/12 09:11:28;;;;;;;7.55;1.42;;;;;;;6.75;87.75;97245.88;5019952;28;20136;-45
2023/04/12 09:13:56;;;;;;;6.18;1.40;;;;;;;6.73;87.53;97257.25;5035271;28;20164;-49
2023/04/12 09:16:40;;;;;;;6.07;1.92;;;;;;;6.68;87.46;97254.94;5015890;28;20052;-48
2023/04/12 09:19:08;;;;;;;5.25;1.90;;;;;;;6.69;87.44;97250.22;5035038;28;20083;-46
2023/04/12 09:21:36;;;;;;;3.13;0.93;;;;;;;6.58;87.14;97258.53;5036585;28;20148;-45
2023/04/12 09:24:04;;;;;;;5.57;1.48;;;;;;;6.47;87.14;97257.03;5019172;28;20056;-45
2023/04/12 09:26:32;;;;;;;8.65;1.60;;;;;;;6.66;87.30;97254.56;5036716;28;20138;-47
2023/04/12 09:28:59;;;;;;;10.27;1.95;;;;;;;7.07;87.04;97253.84;5035361;28;20638;-52
2023/04/12 09:31:26;;;;;;;7.30;1.30;;;;;;;7.22;86.00;97267.06;5015268;28;20061;-50
2023/04/12 09:34:06;;;;;;;5.68;1.10;;;;;;;7.19;85.83;97264.31;5035832;28;20818;-47
2023/04/12 09:36:39;;;;;;;4.72;1.20;;;;;;;7.32;85.41;97259.88;5036067;28;20150;-45
2023/04/12 09:39:06;;;;;;;14.23;2.57;;;;;;;7.29;85.20;97277.97;5034992;28;20037;-45
2023/04/12 09:41:35;;;;;;;3.92;0.98;;;;;;;7.54;85.38;97272.25;5036556;28;20048;-51
2023/04/12 09:44:04;;;;;;;7.57;1.95;;;;;;;7.68;84.41;97276.78;5035075;28;20404;-45
2023/04/12 09:46:34;;;;;;;4.13;1.40;;;;;;;7.57;84.32;97293.41;5036327;28;20041;-46
2023/04/12 09:49:04;;;;;;;4.95;1.38;;;;;;;7.58;84.21;97289.50;5034487;28;20048;-45
2023/04/12 09:51:33;;;;;;;7.35;1.50;;;;;;;7.44;83.95;97300.63;5035880;28;20402;-46
2023/04/12 09:54:02;;;;;;;10.27;4.30;;;;;;;7.20;83.62;97296.91;5015077;28;20077;-45
2023/04/12 09:56:32;;;;;;;8.23;1.70;;;;;;;7.18;84.11;97304.03;5010350;28;20413;-46
2023/04/12 09:59:05;;;;;;;5.88;2.28;;;;;;;7.25;83.89;97310.22;5022010;28;20052;-47
2023/04/12 10:01:39;;;;;;;7.30;1.55;;;;;;;7.47;83.32;97310.81;5023164;28;20053;-49
2023/04/12 10:04:08;;;;;;;6.72;2.42;;;;;;;7.55;82.99;97311.53;5039359;28;20131;-46
2023/04/12 10:06:36;;;;;;;3.20;1.30;;;;;;;7.54;81.91;97316.28;5038789;28;20041;-45
2023/04/12 10:09:04;;;;;;;8.43;2.38;;;;;;;7.63;82.16;97305.56;5038585;28;20048;-46
2023/04/12 10:11:32;;;;;;;8.45;1.52;;;;;;;7.63;81.82;97322.06;5038488;28;20045;-45
2023/04/12 10:14:04;;;;;;;8.23;1.98;;;;;;;7.62;81.59;97317.78;5038421;28;20049;-47
2023/04/12 10:16:33;;;;;;;8.63;2.33;;;;;;;7.54;81.79;97315.50;5038416;28;20581;-46
2023/04/12 10:19:02;;;;;;;7.70;1.85;;;;;;;7.93;81.01;97322.16;5037002;28;20071;-51
2023/04/12 10:21:30;;;;;;;8.38;2.10;;;;;;;7.89;80.16;97326.13;5038987;28;20076;-48
2023/04/12 10:23:57;;;;;;;7.72;1.58;;;;;;;7.72;80.22;97322.38;5038026;28;20099;-49
2023/04/12 10:26:26;;;;;;;2.47;0.80;;;;;;;7.60;80.24;97325.63;5037754;28;20490;-45
2023/04/12 10:29:25;;;;;;;2.50;1.02;;;;;;;7.67;80.64;97331.09;5038151;28;20056;-46
2023/04/12 10:31:54;;;;;;;4.13;0.80;;;;;;;7.92;79.59;97342.63;5037271;28;20041;-47
2023/04/12 10:34:30;;;;;;;1.88;0.57;;;;;;;7.88;79.07;97343.84;5035773;28;20060;-46
2023/04/12 10:36:59;;;;;;;3.88;0.90;;;;;;;7.75;78.97;97343.59;5038538;28;20573;-45
2023/04/12 10:39:46;;;;;;;4.13;1.67;;;;;;;8.17;79.10;97345.09;5038225;28;20124;-50
2023/04/12 10:42:29;;;;;;;5.60;0.60;;;;;;;8.68;77.20;97371.66;5037219;28;20045;-46
2023/04/12 10:45:22;;;;;;;4.63;0.70;;;;;;;9.21;75.88;97365.38;5039000;28;20049;-54
2023/04/12 10:47:52;;;;;;;2.90;0.73;;;;;;;9.27;75.21;97384.97;5037108;28;20139;-51
2023/04/12 10:50:23;;;;;;;7.65;1.23;;;;;;;8.92;75.40;97387.06;5033735;28;20053;-47
2023/04/12 10:53:12;;;;;;;3.50;0.65;;;;;;;8.63;76.18;97394.16;5033494;28;20057;-46
2023/04/12 10:55:40;;;;;;;3.20;0.80;;;;;;;8.31;76.32;97391.03;5035731;28;20091;-45
2023/04/12 10:58:08;;;;;;;6.30;1.00;;;;;;;7.98;76.29;97400.78;5035602;28;20059;-46
2023/04/12 11:00:57;;;;;;;5.15;1.85;;;;;;;7.77;76.54;97406.50;5033553;28;20139;-48
2023/04/12 11:03:26;;;;;;;3.58;0.75;;;;;;;7.67;76.56;97399.91;5035719;28;20419;-45
2023/04/12 11:06:04;;;;;;;1.92;0.90;;;;;;;7.76;76.41;97416.75;5032536;28;20372;-50
2023/04/12 11:08:54;;;;;;;3.30;1.35;;;;;;;7.90;76.02;97411.09;5030487;28;20048;-47
2023/04/12 11:11:25;;;;;;;5.05;1.88;;;;;;;8.10;75.65;97418.78;5034404;28;20049;-48
2023/04/12 11:13:55;;;;;;;2.40;0.88;;;;;;;8.16;75.25;97425.41;5033517;28;20068;-49
2023/04/12 11:16:22;;;;;;;3.58;0.90;;;;;;;8.14;75.17;97441.56;5033203;28;20057;-46
2023/04/12 11:18:49;;;;;;;3.00;0.77;;;;;;;8.13;75.23;97451.78;5036683;28;20585;-46
2023/04/12 11:21:17;;;;;;;2.67;1.00;;;;;;;8.14;74.89;97447.06;5035816;28;20068;-46
2023/04/12 11:23:46;;;;;;;3.13;1.38;;;;;;;8.06;74.72;97462.09;5038048;28;20048;-51
2023/04/12 11:26:20;;;;;;;1.27;0.80;;;;;;;8.08;74.80;97455.00;5037643;28;20486;-45
2023/04/12 11:28:51;;;;;;;2.97;1.27;;;;;;;8.26;74.49;97468.63;5037242;28;20048;-46
2023/04/12 11:31:19;;;;;;;2.45;0.60;;;;;;;8.58;73.89;97463.56;5036614;28;20049;-51
2023/04/12 11:33:47;;;;;;;2.42;0.90;;;;;;;8.71;73.32;97467.34;5036108;28;20053;-46
2023/04/12 11:36:14;;;;;;;2.40;0.65;;;;;;;8.65;73.20;97466.25;5034966;28;20080;-46
2023/04/12 11:38:44;;;;;;;1.80;0.80;;;;;;;8.52;73.23;97474.25;5037002;28;20144;-47
2023/04/12 11:41:13;;;;;;;5.10;0.80;;;;;;;8.40;73.19;97465.72;5037132;28;20064;-46
2023/04/12 11:43:41;;;;;;;2.03;0.82;;;;;;;8.40;73.12;97482.25;5038330;28;20384;-49
2023/04/12 11:46:08;;;;;;;2.88;0.80;;;;;;;8.38;72.99;97481.91;5044177;28;20149;-46
2023/04/12 11:48:39;;;;;;;7.47;1.02;;;;;;;8.27;72.93;97484.75;5043484;28;20053;-46
2023/04/12 11:51:28;;;;;;;0.90;0.47;;;;;;;8.31;72.81;97491.00;5044223;28;20517;-46
2023/04/12 11:53:58;;;;;;;1.77;0.60;;;;;;;8.30;72.71;97506.00;5044032;28;20056;-46